KCBK/CBK METAR and TAF weather

Enter ICAO airport designator
Station Type Date Time Source
KCBK METAR 2020/02/24 07:35 UTC NOAA

KCBK 240735Z AUTO 33010KT 10SM BKN027 BKN033 OVC100 01/01 A2990 RMK AO2 PWINO


Station Type Date Time Source
KCBK Decoded METAR 2020/02/24 07:35 UTC NOAA

Station name not available
Feb 24, 2020 - 02:35 AM EST / 2020.02.24 0735 UTC
Wind: from the NNW (330 degrees) at 12 MPH (10 KT):0
Visibility: 10 mile(s):0
Sky conditions: overcast
Temperature: 33 F (1 C)
Windchill: 24 F (-4 C):1
Dew Point: 33 F (1 C)
Relative Humidity: 100%
Pressure (altimeter): 29.9 in. Hg (1012 hPa)
ob: KCBK 240735Z AUTO 33010KT 10SM BKN027 BKN033 OVC100 01/01 A2990 RMK AO2 PWINO
cycle: 7

Station Type Date Time Source
KCBK TAF UTC NOAA

Error!

Example: see airport list